createdAt,value
2019-01-08T00:00:03.740Z,89.30
2019-01-08T00:02:35.571Z,89.10
2019-01-08T00:05:06.053Z,89.10
2019-01-08T00:07:36.534Z,89.30
2019-01-08T00:10:07.420Z,88.90
2019-01-08T00:12:37.917Z,88.90
2019-01-08T00:15:08.471Z,89.30
2019-01-08T00:17:38.960Z,89.30
2019-01-08T00:20:09.434Z,89.70
2019-01-08T00:22:40.316Z,89.70
2019-01-08T00:25:10.777Z,89.30
2019-01-08T00:27:41.385Z,88.90
2019-01-08T00:30:11.858Z,89.00
2019-01-08T00:32:42.328Z,89.30
2019-01-08T00:35:12.785Z,89.10
2019-01-08T00:37:43.358Z,89.20
2019-01-08T00:40:14.669Z,88.50
2019-01-08T00:42:45.233Z,88.40
2019-01-08T00:45:15.699Z,88.90
2019-01-08T00:47:46.229Z,88.70
2019-01-08T00:50:16.957Z,88.80
2019-01-08T00:52:47.423Z,88.60
2019-01-08T00:55:18.265Z,88.20
2019-01-08T00:57:49.235Z,88.20
2019-01-08T01:00:19.711Z,88.60
2019-01-08T01:02:50.783Z,88.60
2019-01-08T01:05:21.297Z,88.30
2019-01-08T01:07:52.133Z,88.20
2019-01-08T01:10:22.737Z,88.30
2019-01-08T01:12:53.217Z,88.30
2019-01-08T01:15:23.747Z,88.20
2019-01-08T01:17:54.187Z,88.20
2019-01-08T01:20:24.988Z,88.40
2019-01-08T01:22:55.354Z,88.10
2019-01-08T01:25:25.857Z,88.20
2019-01-08T01:27:56.413Z,88.40
2019-01-08T01:30:26.885Z,89.00
2019-01-08T01:32:58.578Z,88.60
2019-01-08T01:35:29.027Z,88.80
2019-01-08T01:37:59.832Z,88.40
2019-01-08T01:40:30.366Z,88.50
2019-01-08T01:43:00.947Z,88.40
2019-01-08T01:45:31.456Z,87.90
2019-01-08T01:48:02.192Z,88.10
2019-01-08T01:50:32.730Z,88.00
2019-01-08T01:53:03.248Z,88.40
2019-01-08T01:55:45.974Z,88.80
2019-01-08T01:58:16.772Z,88.40
2019-01-08T02:00:47.330Z,88.20
2019-01-08T02:03:18.170Z,88.10
2019-01-08T02:05:48.699Z,88.20
2019-01-08T02:08:19.266Z,88.60
2019-01-08T02:10:49.761Z,88.90
2019-01-08T02:13:20.257Z,88.80
2019-01-08T02:15:51.134Z,89.00
2019-01-08T02:18:21.621Z,89.20
2019-01-08T02:20:52.556Z,89.00
2019-01-08T02:23:23.388Z,88.90
2019-01-08T02:25:54.146Z,88.80
2019-01-08T02:28:24.723Z,89.00
2019-01-08T02:30:55.237Z,88.70
2019-01-08T02:33:26.095Z,88.50
2019-01-08T02:35:56.547Z,88.80
2019-01-08T02:38:27.477Z,88.80
2019-01-08T02:40:57.957Z,89.10
2019-01-08T02:43:28.581Z,89.60
2019-01-08T02:45:59.150Z,90.00
2019-01-08T02:48:29.675Z,89.90
2019-01-08T02:51:00.240Z,89.80
2019-01-08T02:53:30.713Z,90.00
2019-01-08T02:56:01.222Z,89.90
2019-01-08T02:58:32.185Z,89.70
2019-01-08T03:01:02.751Z,90.00
2019-01-08T03:03:33.633Z,90.20
2019-01-08T03:06:04.177Z,90.10
2019-01-08T03:08:34.732Z,90.10
2019-01-08T03:11:05.268Z,90.10
2019-01-08T03:13:36.273Z,90.10
2019-01-08T03:16:06.840Z,90.20
2019-01-08T03:18:36.728Z,90.30
2019-01-08T03:21:08.227Z,90.20
2019-01-08T03:23:38.732Z,90.30
2019-01-08T03:26:09.258Z,90.40
2019-01-08T03:28:40.132Z,90.60
2019-01-08T03:31:10.711Z,90.50
2019-01-08T03:33:41.637Z,90.50
2019-01-08T03:36:12.200Z,90.60
2019-01-08T03:38:42.746Z,90.70
2019-01-08T03:41:13.172Z,90.70
2019-01-08T03:43:43.803Z,91.30
2019-01-08T03:46:14.259Z,90.80
2019-01-08T03:48:44.774Z,90.80
2019-01-08T03:51:15.279Z,90.70
2019-01-08T03:53:46.171Z,90.70
2019-01-08T03:56:16.739Z,90.50
2019-01-08T03:58:48.553Z,90.60
2019-01-08T04:01:19.489Z,90.60
2019-01-08T04:03:50.017Z,91.00
2019-01-08T04:06:20.665Z,90.70
2019-01-08T04:08:51.257Z,90.60
2019-01-08T04:11:21.945Z,90.70
2019-01-08T04:13:52.607Z,90.70
2019-01-08T04:16:23.125Z,90.90
2019-01-08T04:18:53.867Z,91.00
2019-01-08T04:21:24.754Z,91.00
2019-01-08T04:23:55.281Z,90.80
2019-01-08T04:26:26.917Z,90.70
2019-01-08T04:28:57.475Z,90.80
2019-01-08T04:31:35.272Z,90.80
2019-01-08T04:34:05.791Z,90.50
2019-01-08T04:36:36.374Z,90.70
2019-01-08T04:39:07.388Z,90.80
2019-01-08T04:41:38.157Z,90.80
2019-01-08T04:44:08.749Z,91.00
2019-01-08T04:46:39.709Z,91.10
2019-01-08T04:49:10.228Z,90.90
2019-01-08T04:51:40.820Z,91.00
2019-01-08T04:54:11.324Z,91.30
2019-01-08T04:56:41.748Z,91.00
2019-01-08T04:59:12.760Z,91.10
2019-01-08T05:01:47.946Z,91.00
2019-01-08T05:04:18.717Z,91.00
2019-01-08T05:06:49.550Z,91.30
2019-01-08T05:09:20.122Z,91.30
2019-01-08T05:11:50.613Z,91.30
2019-01-08T05:14:24.398Z,91.50
2019-01-08T05:16:55.054Z,91.50
2019-01-08T05:19:25.652Z,91.70
2019-01-08T05:21:56.546Z,91.60
2019-01-08T05:24:27.592Z,91.80
2019-01-08T05:26:58.251Z,92.20
2019-01-08T05:29:28.991Z,92.20
2019-01-08T05:35:46.023Z,92.20
2019-01-08T05:38:16.603Z,92.00
2019-01-08T05:40:47.373Z,92.10
2019-01-08T05:43:18.055Z,92.10
2019-01-08T05:45:48.595Z,92.20
2019-01-08T05:48:19.098Z,92.30
2019-01-08T05:50:49.545Z,92.20
2019-01-08T05:53:20.081Z,92.30
2019-01-08T05:55:50.665Z,92.30
2019-01-08T05:58:21.128Z,92.40
2019-01-08T06:00:52.111Z,92.50
2019-01-08T06:03:48.229Z,92.40
2019-01-08T06:06:18.777Z,92.50
2019-01-08T06:08:49.321Z,92.50
2019-01-08T06:11:19.871Z,92.60
2019-01-08T06:13:50.489Z,92.40
2019-01-08T06:16:20.988Z,92.50
2019-01-08T06:18:51.559Z,92.60
2019-01-08T06:21:22.123Z,92.60
2019-01-08T06:23:52.644Z,92.70
2019-01-08T06:26:23.404Z,92.70
2019-01-08T06:28:55.288Z,92.60
2019-01-08T06:31:26.131Z,92.60
2019-01-08T06:33:56.723Z,92.70
2019-01-08T06:36:27.989Z,92.90
2019-01-08T06:38:58.496Z,92.90
2019-01-08T06:41:29.254Z,92.90
2019-01-08T06:43:59.780Z,92.80
2019-01-08T06:46:30.290Z,92.80
2019-01-08T06:49:00.764Z,92.80
2019-01-08T06:51:31.674Z,92.80
2019-01-08T06:54:02.110Z,92.80
2019-01-08T06:56:32.958Z,93.00
2019-01-08T06:59:03.622Z,93.50
2019-01-08T07:01:34.136Z,93.30
2019-01-08T07:04:04.650Z,93.20
2019-01-08T07:06:35.286Z,93.30
2019-01-08T07:09:07.174Z,93.70
2019-01-08T07:11:38.086Z,94.10
2019-01-08T07:14:08.790Z,94.40
2019-01-08T07:16:39.418Z,94.60
2019-01-08T07:19:10.255Z,94.70
2019-01-08T07:21:41.154Z,94.80
2019-01-08T07:24:11.826Z,95.00
2019-01-08T07:26:42.683Z,94.50
2019-01-08T07:29:13.183Z,94.80
2019-01-08T07:31:43.697Z,95.00
2019-01-08T07:34:14.399Z,95.30
2019-01-08T07:36:44.974Z,95.50
2019-01-08T07:39:15.889Z,95.70
2019-01-08T07:41:46.395Z,96.00
2019-01-08T07:44:17.145Z,96.30
2019-01-08T07:46:47.645Z,96.40
2019-01-08T07:49:18.157Z,96.80
2019-01-08T07:51:48.755Z,96.80
2019-01-08T07:54:19.254Z,97.20
2019-01-08T07:56:49.854Z,97.60
2019-01-08T07:59:20.447Z,98.10
2019-01-08T08:01:51.029Z,98.00
2019-01-08T08:04:21.659Z,98.20
2019-01-08T08:06:52.304Z,98.30
2019-01-08T08:09:22.923Z,98.50
2019-01-08T08:11:53.556Z,99.10
2019-01-08T08:14:24.670Z,98.80
2019-01-08T08:16:55.434Z,98.80
2019-01-08T08:19:25.968Z,98.80
2019-01-08T08:21:56.488Z,98.70
2019-01-08T08:24:27.106Z,98.50
2019-01-08T08:26:58.044Z,98.50
2019-01-08T08:29:28.691Z,98.50
2019-01-08T08:31:59.564Z,98.40
2019-01-08T08:34:30.221Z,98.80
2019-01-08T08:37:01.345Z,98.50
2019-01-08T08:39:31.910Z,98.70
2019-01-08T08:42:04.982Z,98.60
2019-01-08T08:44:35.503Z,98.70
2019-01-08T08:47:06.164Z,99.00
2019-01-08T08:49:36.703Z,98.50
2019-01-08T08:52:08.303Z,98.60
2019-01-08T08:54:38.840Z,98.60
2019-01-08T08:57:09.370Z,98.60
2019-01-08T08:59:39.863Z,98.80
2019-01-08T09:02:10.353Z,98.60
2019-01-08T09:04:40.807Z,98.50
2019-01-08T09:07:11.359Z,98.50
2019-01-08T09:09:41.859Z,98.30
2019-01-08T09:12:12.527Z,98.30
2019-01-08T09:14:43.151Z,98.10
2019-01-08T09:17:13.793Z,98.10
2019-01-08T09:19:44.317Z,98.30
2019-01-08T09:22:15.416Z,98.20
2019-01-08T09:24:45.903Z,98.30
2019-01-08T09:27:16.529Z,98.20
2019-01-08T09:29:47.032Z,98.20
2019-01-08T09:32:17.557Z,98.40
2019-01-08T09:34:48.163Z,98.50
2019-01-08T09:37:18.697Z,98.70
2019-01-08T09:39:49.385Z,98.60
2019-01-08T09:42:20.044Z,98.30
2019-01-08T09:44:50.765Z,98.40
2019-01-08T09:47:21.674Z,98.40
2019-01-08T09:49:53.023Z,98.80
2019-01-08T09:52:23.741Z,98.20
2019-01-08T09:54:54.376Z,98.80
2019-01-08T09:57:25.055Z,98.80
2019-01-08T09:59:56.020Z,99.00
2019-01-08T10:02:26.778Z,98.80
2019-01-08T10:04:57.502Z,98.70
2019-01-08T10:07:27.978Z,98.60
2019-01-08T10:09:58.946Z,98.70
2019-01-08T10:12:29.504Z,98.70
2019-01-08T10:14:59.958Z,98.70
2019-01-08T10:17:30.482Z,98.60
2019-01-08T10:20:01.990Z,98.70
2019-01-08T10:22:32.531Z,98.70
2019-01-08T10:25:03.049Z,98.70
2019-01-08T10:27:33.656Z,98.90
2019-01-08T10:30:04.268Z,99.10
2019-01-08T10:32:35.303Z,99.40
2019-01-08T10:35:06.206Z,99.50
2019-01-08T10:37:36.841Z,99.80
2019-01-08T10:40:08.137Z,99.70
2019-01-08T10:42:38.793Z,99.40
2019-01-08T10:45:09.383Z,99.70
2019-01-08T10:47:40.149Z,99.20
2019-01-08T10:50:11.849Z,99.20
2019-01-08T10:52:42.384Z,99.40
2019-01-08T10:55:12.863Z,99.60
2019-01-08T10:57:43.475Z,99.60
2019-01-08T11:00:14.020Z,99.30
2019-01-08T11:02:44.665Z,99.60
2019-01-08T11:05:15.241Z,99.70
2019-01-08T11:07:45.771Z,99.50
2019-01-08T11:10:16.377Z,99.30
2019-01-08T11:12:46.922Z,99.50
2019-01-08T11:15:18.458Z,99.60
2019-01-08T11:17:49.127Z,99.60
2019-01-08T11:20:19.842Z,99.60
2019-01-08T11:22:50.424Z,99.60
2019-01-08T11:25:21.260Z,99.70
2019-01-08T11:27:51.828Z,99.70
2019-01-08T11:30:22.664Z,99.50
2019-01-08T11:32:54.810Z,99.50
2019-01-08T11:35:25.519Z,99.50
2019-01-08T11:37:55.951Z,99.60
2019-01-08T11:40:26.840Z,99.50
2019-01-08T11:42:57.334Z,99.50
2019-01-08T11:45:27.880Z,99.50
2019-01-08T11:48:03.902Z,99.60
2019-01-08T11:50:32.794Z,99.50
2019-01-08T11:53:03.321Z,99.50
2019-01-08T11:55:33.858Z,99.20
2019-01-08T11:58:04.327Z,99.40
2019-01-08T12:00:34.983Z,99.40
2019-01-08T12:03:05.660Z,99.50
2019-01-08T12:05:36.489Z,99.50
2019-01-08T12:08:06.930Z,99.60
2019-01-08T12:10:37.704Z,99.50
2019-01-08T12:13:08.175Z,99.40
2019-01-08T12:15:39.450Z,99.40
2019-01-08T12:18:10.348Z,99.40
2019-01-08T12:20:41.243Z,99.50
2019-01-08T12:23:11.715Z,99.70
2019-01-08T12:25:42.375Z,99.70
2019-01-08T12:28:12.839Z,99.80
2019-01-08T12:30:43.391Z,99.90
2019-01-08T12:33:13.931Z,99.90
2019-01-08T12:35:45.859Z,99.90
2019-01-08T12:38:20.055Z,99.90
2019-01-08T12:40:50.938Z,99.90
2019-01-08T12:43:21.470Z,99.90
2019-01-08T12:45:52.089Z,99.90
2019-01-08T12:48:23.695Z,99.90
2019-01-08T12:50:54.277Z,99.90
2019-01-08T12:53:24.825Z,99.90
2019-01-08T12:55:55.352Z,99.90
2019-01-08T12:58:26.063Z,99.90
2019-01-08T13:00:56.714Z,99.90
2019-01-08T13:03:27.655Z,99.90
2019-01-08T13:05:58.244Z,99.90
2019-01-08T13:08:29.032Z,99.90
2019-01-08T13:10:59.572Z,99.90
2019-01-08T13:13:30.196Z,99.90
2019-01-08T13:16:00.750Z,99.90
2019-01-08T13:18:31.333Z,99.90
2019-01-08T13:21:01.954Z,99.90
2019-01-08T13:23:32.843Z,99.90
2019-01-08T13:26:03.349Z,99.90
2019-01-08T13:28:34.168Z,99.90
2019-01-08T13:31:05.083Z,99.90
2019-01-08T13:33:35.797Z,99.90
2019-01-08T13:36:07.026Z,99.90
2019-01-08T13:38:37.534Z,99.90
2019-01-08T13:41:08.450Z,99.90
2019-01-08T13:43:39.155Z,99.90
2019-01-08T13:46:09.689Z,99.90
2019-01-08T13:48:40.594Z,99.90
2019-01-08T13:51:11.253Z,99.90
2019-01-08T13:53:42.131Z,99.90
2019-01-08T13:56:12.864Z,99.90
2019-01-08T13:58:43.415Z,99.90
2019-01-08T14:01:13.942Z,99.90
2019-01-08T14:03:44.644Z,99.90
2019-01-08T14:06:15.352Z,99.90
2019-01-08T14:08:45.881Z,99.90
2019-01-08T14:11:16.441Z,99.90
2019-01-08T14:13:47.507Z,99.90
2019-01-08T14:16:18.055Z,99.90
2019-01-08T14:18:49.814Z,99.90
2019-01-08T14:21:20.301Z,99.90
2019-01-08T14:23:50.994Z,99.90
2019-01-08T14:26:21.730Z,99.90
2019-01-08T14:28:52.368Z,99.90
2019-01-08T14:31:23.320Z,99.90
2019-01-08T14:33:53.874Z,99.90
2019-01-08T14:36:24.584Z,99.90
2019-01-08T14:38:55.140Z,99.90
2019-01-08T14:41:25.898Z,99.90
2019-01-08T14:44:05.308Z,99.90
2019-01-08T14:46:36.091Z,99.90
2019-01-08T14:49:06.646Z,99.90
2019-01-08T14:51:37.348Z,99.90
2019-01-08T14:54:16.840Z,99.90
2019-01-08T14:56:47.482Z,99.90
2019-01-08T14:59:17.986Z,99.90
2019-01-08T15:01:49.084Z,99.90
2019-01-08T15:04:19.570Z,99.90
2019-01-08T15:06:50.154Z,99.90
2019-01-08T15:09:20.755Z,99.90
2019-01-08T15:11:51.333Z,99.90
2019-01-08T15:14:21.997Z,99.90
2019-01-08T15:16:52.865Z,99.90
2019-01-08T15:19:23.321Z,99.90
2019-01-08T15:21:54.132Z,99.90
2019-01-08T15:24:24.679Z,99.90
2019-01-08T15:26:55.333Z,99.90
2019-01-08T15:29:25.848Z,99.90
2019-01-08T15:31:56.389Z,99.90
2019-01-08T15:34:27.035Z,99.90
2019-01-08T15:36:57.843Z,99.90
2019-01-08T15:39:28.539Z,99.90
2019-01-08T15:41:59.063Z,99.90
2019-01-08T15:45:32.988Z,99.90
2019-01-08T15:48:05.306Z,99.90
2019-01-08T15:50:35.723Z,99.90
2019-01-08T15:53:06.264Z,99.90
2019-01-08T15:55:36.960Z,99.90
2019-01-08T15:58:07.490Z,99.90
2019-01-08T16:00:38.013Z,99.90
2019-01-08T16:03:08.512Z,99.90
2019-01-08T16:05:39.129Z,99.90
2019-01-08T16:08:10.052Z,99.90
2019-01-08T16:10:40.646Z,99.90
2019-01-08T16:13:11.228Z,99.90
2019-01-08T16:15:41.818Z,99.90
2019-01-08T16:18:12.390Z,99.90
2019-01-08T16:20:42.868Z,99.90
2019-01-08T16:23:13.625Z,99.90
2019-01-08T16:25:51.620Z,99.90
2019-01-08T16:28:22.209Z,99.90
2019-01-08T16:30:52.783Z,99.90
2019-01-08T16:33:23.656Z,99.90
2019-01-08T16:35:54.222Z,99.90
2019-01-08T16:38:24.830Z,99.90
2019-01-08T16:40:55.590Z,99.90
2019-01-08T16:43:26.175Z,99.90
2019-01-08T16:45:58.341Z,99.90
2019-01-08T16:48:29.240Z,99.90
2019-01-08T16:50:59.767Z,99.90
2019-01-08T16:53:30.707Z,99.90
2019-01-08T16:56:01.151Z,99.90
2019-01-08T16:58:31.751Z,99.90
2019-01-08T17:01:02.173Z,99.90
2019-01-08T17:03:33.048Z,99.90
2019-01-08T17:06:03.491Z,99.90
2019-01-08T17:08:34.331Z,99.90
2019-01-08T17:11:04.921Z,99.90
2019-01-08T17:13:35.965Z,99.90
2019-01-08T17:16:06.729Z,99.90
2019-01-08T17:18:37.505Z,99.90
2019-01-08T17:21:08.112Z,99.90
2019-01-08T17:23:38.945Z,99.90
2019-01-08T17:26:09.563Z,99.90
2019-01-08T17:28:40.171Z,99.90
2019-01-08T17:31:10.809Z,99.90
2019-01-08T17:33:41.433Z,99.90
2019-01-08T17:36:12.132Z,99.90
2019-01-08T17:38:42.664Z,99.90
2019-01-08T17:41:13.553Z,99.90
2019-01-08T17:43:44.459Z,99.90
2019-01-08T17:46:15.346Z,99.90
2019-01-08T17:48:46.208Z,99.90
2019-01-08T17:51:16.816Z,99.90
2019-01-08T17:53:47.738Z,99.90
2019-01-08T17:56:18.432Z,99.90
2019-01-08T17:59:10.840Z,99.90
2019-01-08T18:02:04.412Z,99.90
2019-01-08T18:04:34.981Z,99.90
2019-01-08T18:07:06.590Z,99.90
2019-01-08T18:09:38.187Z,99.90
2019-01-08T18:12:08.704Z,99.90
2019-01-08T18:14:39.258Z,99.90
2019-01-08T18:17:10.256Z,99.90
2019-01-08T18:19:40.838Z,99.90
2019-01-08T18:22:11.649Z,99.90
2019-01-08T18:24:42.371Z,99.90
2019-01-08T18:27:13.521Z,99.90
2019-01-08T18:29:44.021Z,99.90
2019-01-08T18:32:14.629Z,99.90
2019-01-08T18:34:45.682Z,99.90
2019-01-08T18:37:16.349Z,99.90
2019-01-08T18:39:53.725Z,99.90
2019-01-08T18:42:24.554Z,99.90
2019-01-08T18:44:55.119Z,99.90
2019-01-08T18:47:25.717Z,99.90
2019-01-08T18:49:56.347Z,99.90
2019-01-08T18:52:26.861Z,99.90
2019-01-08T18:54:57.697Z,99.90
2019-01-08T18:57:29.753Z,99.90
2019-01-08T19:00:00.209Z,99.90
2019-01-08T19:02:31.455Z,99.90
2019-01-08T19:05:02.369Z,99.90
2019-01-08T19:07:33.100Z,99.90
2019-01-08T19:10:11.048Z,99.90
2019-01-08T19:12:41.969Z,99.90
2019-01-08T19:15:12.983Z,99.90
2019-01-08T19:17:44.186Z,99.90
2019-01-08T19:20:14.850Z,99.90
2019-01-08T19:22:45.930Z,99.90
2019-01-08T19:25:16.936Z,99.90
2019-01-08T19:27:48.398Z,99.90
2019-01-08T19:30:21.002Z,99.90
2019-01-08T19:32:52.296Z,99.90
2019-01-08T19:35:31.226Z,99.90
2019-01-08T19:37:55.487Z,99.80
2019-01-08T19:40:26.048Z,99.90
2019-01-08T19:42:56.739Z,99.90
2019-01-08T19:45:27.338Z,99.90
2019-01-08T19:47:57.974Z,99.90
2019-01-08T19:50:28.484Z,99.70
2019-01-08T19:52:59.157Z,99.60
2019-01-08T19:55:29.755Z,99.80
2019-01-08T19:58:00.341Z,99.90
2019-01-08T20:00:30.850Z,99.90
2019-01-08T20:03:01.813Z,99.90
2019-01-08T20:05:32.397Z,99.90
2019-01-08T20:08:02.976Z,99.90
2019-01-08T20:10:34.074Z,99.90
2019-01-08T20:13:04.599Z,99.90
2019-01-08T20:15:35.549Z,99.90
2019-01-08T20:18:06.517Z,99.90
2019-01-08T20:20:37.075Z,99.90
2019-01-08T20:23:07.751Z,99.90
2019-01-08T20:25:38.282Z,99.90
2019-01-08T20:28:08.969Z,99.90
2019-01-08T20:30:39.568Z,99.90
2019-01-08T20:33:10.195Z,99.90
2019-01-08T20:35:41.125Z,99.90
2019-01-08T20:38:12.107Z,99.90
2019-01-08T20:40:42.638Z,99.90
2019-01-08T20:43:13.547Z,99.90
2019-01-08T20:45:44.212Z,99.90
2019-01-08T20:48:16.475Z,99.90
2019-01-08T20:50:47.383Z,99.90
2019-01-08T20:53:18.009Z,99.90
2019-01-08T20:55:50.185Z,99.90
2019-01-08T20:58:27.560Z,99.90
2019-01-08T21:00:52.907Z,99.90
2019-01-08T21:03:23.632Z,99.80
2019-01-08T21:05:54.417Z,99.90
2019-01-08T21:08:25.499Z,99.80
2019-01-08T21:10:56.276Z,99.90
2019-01-08T21:13:27.280Z,99.80
2019-01-08T21:15:58.015Z,99.60
2019-01-08T21:18:28.992Z,99.70
2019-01-08T21:21:00.204Z,99.80
2019-01-08T21:23:30.930Z,99.70
2019-01-08T21:26:01.460Z,99.60
2019-01-08T21:28:32.107Z,99.80
2019-01-08T21:31:02.646Z,99.80
2019-01-08T21:33:33.409Z,99.80
2019-01-08T21:36:03.910Z,99.60
2019-01-08T21:38:34.586Z,99.50
2019-01-08T21:41:06.269Z,99.60
2019-01-08T21:43:37.081Z,99.90
2019-01-08T21:46:07.676Z,99.90
2019-01-08T21:48:38.625Z,99.70
2019-01-08T21:51:09.310Z,99.70
2019-01-08T21:53:39.820Z,99.80
2019-01-08T21:56:12.791Z,99.60
2019-01-08T21:58:43.601Z,99.60
2019-01-08T22:01:14.417Z,99.70
2019-01-08T22:03:45.428Z,99.70
2019-01-08T22:06:16.164Z,99.60
2019-01-08T22:08:46.735Z,99.50
2019-01-08T22:11:17.946Z,99.60
2019-01-08T22:13:48.420Z,99.70
2019-01-08T22:16:19.343Z,99.50
2019-01-08T22:18:49.951Z,99.50
2019-01-08T22:21:20.459Z,99.50
2019-01-08T22:23:51.055Z,99.50
2019-01-08T22:26:21.583Z,99.40
2019-01-08T22:28:52.684Z,99.40
2019-01-08T22:31:23.217Z,99.50
2019-01-08T22:33:53.773Z,99.50
2019-01-08T22:36:24.499Z,99.40
2019-01-08T22:38:55.131Z,99.40
2019-01-08T22:41:25.632Z,99.20
2019-01-08T22:43:57.466Z,99.30
2019-01-08T22:46:28.006Z,99.20
2019-01-08T22:48:58.685Z,99.50
2019-01-08T22:51:29.338Z,99.50
2019-01-08T22:53:59.918Z,99.40
2019-01-08T22:56:30.484Z,99.10
2019-01-08T22:59:01.258Z,99.00
2019-01-08T23:01:36.810Z,99.10
2019-01-08T23:04:09.228Z,98.80
2019-01-08T23:06:40.158Z,99.10
2019-01-08T23:09:11.634Z,99.10
2019-01-08T23:11:42.431Z,99.40
2019-01-08T23:14:13.194Z,99.30
2019-01-08T23:16:44.127Z,99.10
2019-01-08T23:19:14.664Z,99.30
2019-01-08T23:21:45.296Z,99.30
2019-01-08T23:24:15.822Z,99.20
2019-01-08T23:26:46.625Z,99.20
2019-01-08T23:29:17.088Z,98.70
2019-01-08T23:31:47.707Z,98.70
2019-01-08T23:34:19.799Z,98.60
2019-01-08T23:36:50.373Z,98.50
2019-01-08T23:39:22.792Z,98.50
2019-01-08T23:41:54.095Z,98.30
2019-01-08T23:44:24.926Z,98.20
2019-01-08T23:46:55.459Z,98.20
2019-01-08T23:49:25.961Z,98.30
2019-01-08T23:52:08.729Z,98.70
2019-01-08T23:54:41.341Z,98.40
2019-01-08T23:57:12.350Z,98.30
2019-01-08T23:59:52.215Z,98.50
